NOO2587 SKBO-KMIA
Flight info
| Callsign | NOO2587 |
|---|---|
| Flight time | N/A |
| Altitude | 34000 |
| Route | OSUSU4R GIKPU UQ120 DIBAM DCT KAGEM UL417 EVPIP/N0466F360 UL417 LENAX UL795 ALTIB DCT ZEUSS VIICE2 |
| Aircraft | B752/M-SDE3FGHIM3RWXY/LB1 |
Departure
| Time | 2026-05-04 00:49 |
|---|---|
| Airport | El Dorado International Airport (SKBO) |
Arrival
| Time | N/A |
|---|---|
| Airport | Miami International Airport (KMIA) |
| Time | Latitude | Longitude | Altitude | Speed | Heading |
|---|---|---|---|---|---|
| 2026-05-04 00:21 | 4.69993 | -74.14115 | 8366 ft | 0 kts | 215° |
| 2026-05-04 00:38 | 4.70002 | -74.14109 | 8366 ft | 2 kts | 215° |
| 2026-05-04 00:38 | 4.70014 | -74.14101 | 8366 ft | 2 kts | 215° |
| 2026-05-04 00:38 | 4.70027 | -74.14092 | 8366 ft | 2 kts | 215° |
| 2026-05-04 00:39 | 4.70039 | -74.14082 | 8366 ft | 2 kts | 239° |
| 2026-05-04 00:39 | 4.70043 | -74.14067 | 8366 ft | 2 kts | 273° |
| 2026-05-04 00:39 | 4.70039 | -74.14053 | 8366 ft | 2 kts | 307° |
| 2026-05-04 00:39 | 4.70029 | -74.14042 | 8366 ft | 2 kts | 309° |
| 2026-05-04 00:40 | 4.70020 | -74.14030 | 8366 ft | 2 kts | 306° |
| 2026-05-04 00:40 | 4.70011 | -74.14017 | 8366 ft | 2 kts | 308° |
| 2026-05-04 00:40 | 4.70001 | -74.14005 | 8366 ft | 2 kts | 307° |
| 2026-05-04 00:40 | 4.69994 | -74.13996 | 8366 ft | 0 kts | 307° |
| 2026-05-04 00:43 | 4.70006 | -74.14011 | 8366 ft | 6 kts | 313° |
| 2026-05-04 00:43 | 4.70065 | -74.14020 | 8366 ft | 12 kts | 27° |
| 2026-05-04 00:43 | 4.70144 | -74.13983 | 8366 ft | 14 kts | 347° |
| 2026-05-04 00:44 | 4.70225 | -74.14064 | 8366 ft | 18 kts | 308° |
| 2026-05-04 00:44 | 4.70305 | -74.14168 | 8366 ft | 20 kts | 306° |
| 2026-05-04 00:44 | 4.70388 | -74.14279 | 8366 ft | 18 kts | 307° |
| 2026-05-04 00:44 | 4.70461 | -74.14375 | 8366 ft | 15 kts | 307° |
| 2026-05-04 00:45 | 4.70521 | -74.14454 | 8366 ft | 12 kts | 307° |
| 2026-05-04 00:45 | 4.70578 | -74.14529 | 8366 ft | 14 kts | 307° |
| 2026-05-04 00:45 | 4.70646 | -74.14619 | 8366 ft | 17 kts | 307° |
| 2026-05-04 00:45 | 4.70726 | -74.14726 | 8366 ft | 20 kts | 307° |
| 2026-05-04 00:46 | 4.70817 | -74.14848 | 8366 ft | 22 kts | 307° |
| 2026-05-04 00:46 | 4.70910 | -74.14970 | 8366 ft | 20 kts | 307° |
| 2026-05-04 00:46 | 4.70988 | -74.15074 | 8366 ft | 17 kts | 307° |
| 2026-05-04 00:46 | 4.71056 | -74.15162 | 8366 ft | 14 kts | 307° |
| 2026-05-04 00:47 | 4.71110 | -74.15234 | 8366 ft | 11 kts | 307° |
| 2026-05-04 00:47 | 4.71153 | -74.15286 | 8366 ft | 8 kts | 317° |
| 2026-05-04 00:47 | 4.71187 | -74.15305 | 8366 ft | 5 kts | 354° |
| 2026-05-04 00:47 | 4.71232 | -74.15289 | 8366 ft | 8 kts | 28° |
| 2026-05-04 00:48 | 4.71291 | -74.15243 | 8366 ft | 12 kts | 41° |
| 2026-05-04 00:48 | 4.71302 | -74.15159 | 8366 ft | 16 kts | 127° |
| 2026-05-04 00:48 | 4.71180 | -74.14997 | 8366 ft | 52 kts | 128° |
| 2026-05-04 00:48 | 4.70828 | -74.14532 | 8367 ft | 114 kts | 127° |
| 2026-05-04 00:49 | 4.70222 | -74.13731 | 8367 ft | 172 kts | 128° |
| 2026-05-04 00:49 | 4.69409 | -74.12649 | 8566 ft | 208 kts | 127° |
| 2026-05-04 00:49 | 4.68748 | -74.11426 | 9525 ft | 199 kts | 105° |
| 2026-05-04 00:49 | 4.68722 | -74.10046 | 9660 ft | 207 kts | 70° |
| 2026-05-04 00:50 | 4.69568 | -74.08883 | 9741 ft | 217 kts | 32° |
| 2026-05-04 00:50 | 4.71010 | -74.08388 | 9809 ft | 227 kts | 5° |
| 2026-05-04 00:50 | 4.72653 | -74.08186 | 9795 ft | 247 kts | 11° |
| 2026-05-04 00:50 | 4.74305 | -74.07793 | 10233 ft | 245 kts | 14° |
| 2026-05-04 00:51 | 4.75936 | -74.07327 | 10652 ft | 246 kts | 16° |
| 2026-05-04 00:51 | 4.77587 | -74.06804 | 10990 ft | 249 kts | 18° |
| 2026-05-04 00:51 | 4.79255 | -74.06262 | 11094 ft | 264 kts | 18° |
| 2026-05-04 00:51 | 4.81057 | -74.05673 | 11124 ft | 282 kts | 19° |
| 2026-05-04 00:52 | 4.82985 | -74.05032 | 11165 ft | 300 kts | 19° |
| 2026-05-04 00:52 | 4.84932 | -74.04380 | 11942 ft | 288 kts | 19° |
| 2026-05-04 00:52 | 4.86813 | -74.03745 | 12348 ft | 291 kts | 19° |
| 2026-05-04 00:52 | 4.88741 | -74.03092 | 12765 ft | 293 kts | 20° |
| 2026-05-04 00:53 | 4.90663 | -74.02441 | 13171 ft | 295 kts | 20° |
| 2026-05-04 00:53 | 4.92597 | -74.01787 | 13556 ft | 297 kts | 20° |
| 2026-05-04 00:53 | 4.94560 | -74.01122 | 13964 ft | 298 kts | 20° |
| 2026-05-04 00:53 | 4.95995 | -74.00635 | 14241 ft | 300 kts | 20° |
| 2026-05-04 00:54 | 4.97959 | -73.99970 | 14627 ft | 302 kts | 20° |
| 2026-05-04 00:54 | 4.99961 | -73.99292 | 15032 ft | 303 kts | 20° |
| 2026-05-04 00:54 | 5.01944 | -73.98633 | 15390 ft | 305 kts | 17° |
| 2026-05-04 00:54 | 5.04013 | -73.98109 | 15755 ft | 308 kts | 15° |
| 2026-05-04 00:55 | 5.06094 | -73.97610 | 16121 ft | 309 kts | 14° |
| 2026-05-04 00:55 | 5.08208 | -73.97138 | 16469 ft | 311 kts | 14° |
| 2026-05-04 00:55 | 5.10317 | -73.96664 | 16809 ft | 313 kts | 14° |
| 2026-05-04 00:55 | 5.12432 | -73.96186 | 17156 ft | 315 kts | 15° |
| 2026-05-04 00:56 | 5.14560 | -73.95704 | 17473 ft | 317 kts | 15° |
| 2026-05-04 00:56 | 5.16716 | -73.95215 | 17810 ft | 318 kts | 15° |
| 2026-05-04 00:56 | 5.18888 | -73.94722 | 18123 ft | 321 kts | 15° |
| 2026-05-04 00:56 | 5.21104 | -73.94217 | 18142 ft | 334 kts | 15° |
| 2026-05-04 00:57 | 5.23405 | -73.93694 | 18155 ft | 346 kts | 15° |
| 2026-05-04 00:57 | 5.25727 | -73.93166 | 18166 ft | 358 kts | 15° |
| 2026-05-04 00:57 | 5.27381 | -73.92790 | 18173 ft | 367 kts | 14° |
| 2026-05-04 00:57 | 5.30779 | -73.92019 | 18186 ft | 382 kts | 14° |
| 2026-05-04 00:58 | 5.33400 | -73.91423 | 18194 ft | 394 kts | 14° |
| 2026-05-04 00:58 | 5.36116 | -73.90807 | 18201 ft | 405 kts | 14° |
| 2026-05-04 00:58 | 5.38885 | -73.90177 | 18208 ft | 415 kts | 14° |
| 2026-05-04 00:58 | 5.41713 | -73.89535 | 18328 ft | 422 kts | 14° |
| 2026-05-04 00:59 | 5.44579 | -73.88885 | 18668 ft | 422 kts | 14° |
| 2026-05-04 00:59 | 5.47433 | -73.88236 | 18912 ft | 424 kts | 14° |
| 2026-05-04 00:59 | 5.50284 | -73.87588 | 19207 ft | 425 kts | 14° |
| 2026-05-04 00:59 | 5.53196 | -73.86926 | 19476 ft | 427 kts | 14° |
| 2026-05-04 01:00 | 5.56077 | -73.86271 | 19734 ft | 429 kts | 14° |
| 2026-05-04 01:00 | 5.58981 | -73.85611 | 19994 ft | 430 kts | 14° |
| 2026-05-04 01:00 | 5.61913 | -73.84944 | 20261 ft | 432 kts | 14° |
| 2026-05-04 01:00 | 5.64803 | -73.84287 | 20515 ft | 433 kts | 14° |
| 2026-05-04 01:01 | 5.67749 | -73.83617 | 20779 ft | 435 kts | 14° |
| 2026-05-04 01:01 | 5.70689 | -73.82948 | 21039 ft | 436 kts | 14° |
| 2026-05-04 01:01 | 5.73660 | -73.82272 | 21286 ft | 438 kts | 14° |
| 2026-05-04 01:01 | 5.76634 | -73.81596 | 21538 ft | 439 kts | 14° |
| 2026-05-04 01:02 | 5.79598 | -73.80921 | 21784 ft | 440 kts | 14° |
| 2026-05-04 01:02 | 5.82564 | -73.80246 | 22030 ft | 441 kts | 14° |
| 2026-05-04 01:02 | 5.84547 | -73.79795 | 22189 ft | 442 kts | 14° |
| 2026-05-04 01:02 | 5.88555 | -73.78883 | 22515 ft | 444 kts | 14° |
| 2026-05-04 01:03 | 5.91551 | -73.78200 | 22752 ft | 446 kts | 14° |
| 2026-05-04 01:03 | 5.94340 | -73.77566 | 22997 ft | 446 kts | 14° |